sensor_id;sensor_type;location;lat;lon;timestamp;temperature;humidity
32877;DHT22;19226;51.600;8.034;2024-01-11T00:01:39;-3.20;99.90
32877;DHT22;19226;51.600;8.034;2024-01-11T00:04:23;-3.20;99.90
32877;DHT22;19226;51.600;8.034;2024-01-11T00:07:08;-3.20;99.90
32877;DHT22;19226;51.600;8.034;2024-01-11T00:09:52;-3.20;99.90
32877;DHT22;19226;51.600;8.034;2024-01-11T00:12:37;-3.30;99.90
32877;DHT22;19226;51.600;8.034;2024-01-11T00:15:21;-3.30;99.90
32877;DHT22;19226;51.600;8.034;2024-01-11T00:18:06;-3.40;99.90
32877;DHT22;19226;51.600;8.034;2024-01-11T00:20:51;-3.40;99.90
32877;DHT22;19226;51.600;8.034;2024-01-11T00:23:36;-3.40;99.90
32877;DHT22;19226;51.600;8.034;2024-01-11T00:26:21;-3.50;99.90
32877;DHT22;19226;51.600;8.034;2024-01-11T00:29:05;-3.50;99.90
32877;DHT22;19226;51.600;8.034;2024-01-11T00:31:50;-3.50;99.90
32877;DHT22;19226;51.600;8.034;2024-01-11T00:34:35;-3.60;99.90
32877;DHT22;19226;51.600;8.034;2024-01-11T00:37:20;-3.60;99.90
32877;DHT22;19226;51.600;8.034;2024-01-11T00:40:05;-3.70;99.90
32877;DHT22;19226;51.600;8.034;2024-01-11T00:42:50;-3.70;99.90
32877;DHT22;19226;51.600;8.034;2024-01-11T00:45:34;-3.70;99.90
32877;DHT22;19226;51.600;8.034;2024-01-11T00:48:19;-3.80;99.90
32877;DHT22;19226;51.600;8.034;2024-01-11T00:51:05;-3.80;99.90
32877;DHT22;19226;51.600;8.034;2024-01-11T00:53:50;-3.80;99.90
32877;DHT22;19226;51.600;8.034;2024-01-11T00:56:34;-3.80;99.90
32877;DHT22;19226;51.600;8.034;2024-01-11T00:59:19;-3.80;99.90
32877;DHT22;19226;51.600;8.034;2024-01-11T01:02:03;-3.80;99.90
32877;DHT22;19226;51.600;8.034;2024-01-11T01:04:49;-3.80;99.90
32877;DHT22;19226;51.600;8.034;2024-01-11T01:07:34;-3.90;99.90
32877;DHT22;19226;51.600;8.034;2024-01-11T01:10:18;-3.90;99.90
32877;DHT22;19226;51.600;8.034;2024-01-11T01:13:03;-3.90;99.90
32877;DHT22;19226;51.600;8.034;2024-01-11T01:15:48;-4.00;99.90
32877;DHT22;19226;51.600;8.034;2024-01-11T01:18:32;-4.00;99.90
32877;DHT22;19226;51.600;8.034;2024-01-11T01:21:17;-4.00;99.90
32877;DHT22;19226;51.600;8.034;2024-01-11T01:24:02;-4.00;99.90
32877;DHT22;19226;51.600;8.034;2024-01-11T01:26:47;-4.00;99.90
32877;DHT22;19226;51.600;8.034;2024-01-11T01:29:32;-4.00;99.90
32877;DHT22;19226;51.600;8.034;2024-01-11T01:32:16;-4.10;99.90
32877;DHT22;19226;51.600;8.034;2024-01-11T01:35:01;-4.10;99.90
32877;DHT22;19226;51.600;8.034;2024-01-11T01:37:46;-4.10;99.90
32877;DHT22;19226;51.600;8.034;2024-01-11T01:40:30;-4.10;99.90
32877;DHT22;19226;51.600;8.034;2024-01-11T01:43:16;-4.20;99.90
32877;DHT22;19226;51.600;8.034;2024-01-11T01:46:00;-4.20;99.90
32877;DHT22;19226;51.600;8.034;2024-01-11T01:48:46;-4.20;99.90
32877;DHT22;19226;51.600;8.034;2024-01-11T01:51:31;-4.30;99.90
32877;DHT22;19226;51.600;8.034;2024-01-11T01:54:17;-4.30;99.90
32877;DHT22;19226;51.600;8.034;2024-01-11T01:57:02;-4.30;99.90
32877;DHT22;19226;51.600;8.034;2024-01-11T01:59:50;-4.30;99.90
32877;DHT22;19226;51.600;8.034;2024-01-11T02:02:37;-4.40;99.90
32877;DHT22;19226;51.600;8.034;2024-01-11T02:05:23;-4.40;99.90
32877;DHT22;19226;51.600;8.034;2024-01-11T02:08:08;-4.40;99.90
32877;DHT22;19226;51.600;8.034;2024-01-11T02:10:57;-4.40;99.90
32877;DHT22;19226;51.600;8.034;2024-01-11T02:13:42;-4.40;99.90
32877;DHT22;19226;51.600;8.034;2024-01-11T02:16:27;-4.50;99.90
32877;DHT22;19226;51.600;8.034;2024-01-11T02:19:17;-4.50;99.90
32877;DHT22;19226;51.600;8.034;2024-01-11T02:22:10;-4.50;99.90
32877;DHT22;19226;51.600;8.034;2024-01-11T02:24:57;-4.50;99.90
32877;DHT22;19226;51.600;8.034;2024-01-11T02:27:50;-4.50;99.90
32877;DHT22;19226;51.600;8.034;2024-01-11T02:30:34;-4.50;99.90
32877;DHT22;19226;51.600;8.034;2024-01-11T02:33:19;-4.50;99.90
32877;DHT22;19226;51.600;8.034;2024-01-11T02:36:04;-4.60;99.90
32877;DHT22;19226;51.600;8.034;2024-01-11T02:38:50;-4.60;99.90
32877;DHT22;19226;51.600;8.034;2024-01-11T02:41:37;-4.60;99.90
32877;DHT22;19226;51.600;8.034;2024-01-11T02:44:21;-4.60;99.90
32877;DHT22;19226;51.600;8.034;2024-01-11T02:47:06;-4.60;99.90
32877;DHT22;19226;51.600;8.034;2024-01-11T02:49:51;-4.60;99.90
32877;DHT22;19226;51.600;8.034;2024-01-11T02:52:36;-4.70;99.90
32877;DHT22;19226;51.600;8.034;2024-01-11T02:55:22;-4.70;99.90
32877;DHT22;19226;51.600;8.034;2024-01-11T02:58:06;-4.70;99.90
32877;DHT22;19226;51.600;8.034;2024-01-11T03:00:51;-4.80;99.90
32877;DHT22;19226;51.600;8.034;2024-01-11T03:03:35;-4.80;99.90
32877;DHT22;19226;51.600;8.034;2024-01-11T03:06:21;-4.80;99.90
32877;DHT22;19226;51.600;8.034;2024-01-11T03:09:06;-4.90;99.90
32877;DHT22;19226;51.600;8.034;2024-01-11T03:11:51;-4.90;99.90
32877;DHT22;19226;51.600;8.034;2024-01-11T03:14:35;-4.90;99.90
32877;DHT22;19226;51.600;8.034;2024-01-11T03:17:20;-4.90;99.90
32877;DHT22;19226;51.600;8.034;2024-01-11T03:20:05;-5.00;99.90
32877;DHT22;19226;51.600;8.034;2024-01-11T03:22:53;-5.00;99.90
32877;DHT22;19226;51.600;8.034;2024-01-11T03:25:38;-5.00;99.90
32877;DHT22;19226;51.600;8.034;2024-01-11T03:28:23;-5.00;99.90
32877;DHT22;19226;51.600;8.034;2024-01-11T03:31:09;-5.00;99.90
32877;DHT22;19226;51.600;8.034;2024-01-11T03:33:54;-5.00;99.90
32877;DHT22;19226;51.600;8.034;2024-01-11T03:36:38;-5.00;99.90
32877;DHT22;19226;51.600;8.034;2024-01-11T03:39:25;-5.00;99.90
32877;DHT22;19226;51.600;8.034;2024-01-11T03:42:09;-5.10;99.90
32877;DHT22;19226;51.600;8.034;2024-01-11T03:44:54;-5.10;99.90
32877;DHT22;19226;51.600;8.034;2024-01-11T03:47:38;-5.10;99.90
32877;DHT22;19226;51.600;8.034;2024-01-11T03:50:23;-5.10;99.90
32877;DHT22;19226;51.600;8.034;2024-01-11T03:53:07;-5.10;99.90
32877;DHT22;19226;51.600;8.034;2024-01-11T03:55:52;-5.10;99.90
32877;DHT22;19226;51.600;8.034;2024-01-11T03:58:36;-5.10;99.90
32877;DHT22;19226;51.600;8.034;2024-01-11T04:01:23;-5.10;99.90
32877;DHT22;19226;51.600;8.034;2024-01-11T04:04:08;-5.10;99.90
32877;DHT22;19226;51.600;8.034;2024-01-11T04:06:52;-5.20;99.90
32877;DHT22;19226;51.600;8.034;2024-01-11T04:09:38;-5.20;99.90
32877;DHT22;19226;51.600;8.034;2024-01-11T04:12:22;-5.20;99.90
32877;DHT22;19226;51.600;8.034;2024-01-11T04:15:07;-5.20;99.90
32877;DHT22;19226;51.600;8.034;2024-01-11T04:17:52;-5.20;99.90
32877;DHT22;19226;51.600;8.034;2024-01-11T04:20:36;-5.20;99.90
32877;DHT22;19226;51.600;8.034;2024-01-11T04:23:21;-5.20;99.90
32877;DHT22;19226;51.600;8.034;2024-01-11T04:26:06;-5.30;99.90
32877;DHT22;19226;51.600;8.034;2024-01-11T04:28:51;-5.30;99.90
32877;DHT22;19226;51.600;8.034;2024-01-11T04:31:36;-5.30;99.90
32877;DHT22;19226;51.600;8.034;2024-01-11T04:34:20;-5.40;99.90
32877;DHT22;19226;51.600;8.034;2024-01-11T04:37:06;-5.40;99.90
32877;DHT22;19226;51.600;8.034;2024-01-11T04:39:51;-5.40;99.90
32877;DHT22;19226;51.600;8.034;2024-01-11T04:42:35;-5.40;99.90
32877;DHT22;19226;51.600;8.034;2024-01-11T04:45:20;-5.40;99.90
32877;DHT22;19226;51.600;8.034;2024-01-11T04:48:06;-5.40;99.90
32877;DHT22;19226;51.600;8.034;2024-01-11T04:50:50;-5.50;99.90
32877;DHT22;19226;51.600;8.034;2024-01-11T04:53:39;-5.50;99.90
32877;DHT22;19226;51.600;8.034;2024-01-11T04:56:24;-5.50;99.90
32877;DHT22;19226;51.600;8.034;2024-01-11T04:59:08;-5.60;99.90
32877;DHT22;19226;51.600;8.034;2024-01-11T05:01:53;-5.60;99.90
32877;DHT22;19226;51.600;8.034;2024-01-11T05:04:37;-5.60;99.90
32877;DHT22;19226;51.600;8.034;2024-01-11T05:07:22;-5.60;99.90
32877;DHT22;19226;51.600;8.034;2024-01-11T05:10:07;-5.70;99.90
32877;DHT22;19226;51.600;8.034;2024-01-11T05:12:52;-5.70;99.90
32877;DHT22;19226;51.600;8.034;2024-01-11T05:15:39;-5.70;99.90
32877;DHT22;19226;51.600;8.034;2024-01-11T05:18:23;-5.60;99.90
32877;DHT22;19226;51.600;8.034;2024-01-11T05:21:08;-5.70;99.90
32877;DHT22;19226;51.600;8.034;2024-01-11T05:23:53;-5.60;99.90
32877;DHT22;19226;51.600;8.034;2024-01-11T05:26:37;-5.60;99.90
32877;DHT22;19226;51.600;8.034;2024-01-11T05:29:22;-5.60;99.90
32877;DHT22;19226;51.600;8.034;2024-01-11T05:32:06;-5.60;99.90
32877;DHT22;19226;51.600;8.034;2024-01-11T05:34:51;-5.60;99.90
32877;DHT22;19226;51.600;8.034;2024-01-11T05:37:36;-5.60;99.90
32877;DHT22;19226;51.600;8.034;2024-01-11T05:40:21;-5.60;99.90
32877;DHT22;19226;51.600;8.034;2024-01-11T05:43:06;-5.60;99.90
32877;DHT22;19226;51.600;8.034;2024-01-11T05:45:51;-5.60;99.90
32877;DHT22;19226;51.600;8.034;2024-01-11T05:48:35;-5.70;99.90
32877;DHT22;19226;51.600;8.034;2024-01-11T05:51:20;-5.80;99.90
32877;DHT22;19226;51.600;8.034;2024-01-11T05:54:04;-5.90;99.90
32877;DHT22;19226;51.600;8.034;2024-01-11T05:56:49;-6.00;99.90
32877;DHT22;19226;51.600;8.034;2024-01-11T05:59:36;-6.00;99.90
32877;DHT22;19226;51.600;8.034;2024-01-11T06:02:21;-6.00;99.90
32877;DHT22;19226;51.600;8.034;2024-01-11T06:05:09;-6.00;99.90
32877;DHT22;19226;51.600;8.034;2024-01-11T06:07:54;-6.10;99.90
32877;DHT22;19226;51.600;8.034;2024-01-11T06:10:39;-6.20;99.90
32877;DHT22;19226;51.600;8.034;2024-01-11T06:13:24;-6.20;99.90
32877;DHT22;19226;51.600;8.034;2024-01-11T06:16:08;-6.20;99.90
32877;DHT22;19226;51.600;8.034;2024-01-11T06:18:53;-6.10;99.90
32877;DHT22;19226;51.600;8.034;2024-01-11T06:21:37;-6.00;99.90
32877;DHT22;19226;51.600;8.034;2024-01-11T06:24:22;-6.10;99.90
32877;DHT22;19226;51.600;8.034;2024-01-11T06:27:07;-6.00;99.90
32877;DHT22;19226;51.600;8.034;2024-01-11T06:29:51;-6.00;99.90
32877;DHT22;19226;51.600;8.034;2024-01-11T06:32:36;-5.90;99.90
32877;DHT22;19226;51.600;8.034;2024-01-11T06:35:20;-5.90;99.90
32877;DHT22;19226;51.600;8.034;2024-01-11T06:38:05;-5.90;99.90
32877;DHT22;19226;51.600;8.034;2024-01-11T06:40:50;-5.90;99.90
32877;DHT22;19226;51.600;8.034;2024-01-11T06:43:34;-5.90;99.90
32877;DHT22;19226;51.600;8.034;2024-01-11T06:46:22;-5.90;99.90
32877;DHT22;19226;51.600;8.034;2024-01-11T06:49:08;-5.90;99.90
32877;DHT22;19226;51.600;8.034;2024-01-11T06:51:52;-5.90;99.90
32877;DHT22;19226;51.600;8.034;2024-01-11T06:54:37;-5.90;99.90
32877;DHT22;19226;51.600;8.034;2024-01-11T06:57:21;-5.90;99.90
32877;DHT22;19226;51.600;8.034;2024-01-11T07:00:07;-5.90;99.90
32877;DHT22;19226;51.600;8.034;2024-01-11T07:02:51;-5.90;99.90
32877;DHT22;19226;51.600;8.034;2024-01-11T07:05:38;-6.00;99.90
32877;DHT22;19226;51.600;8.034;2024-01-11T07:08:22;-6.00;99.90
32877;DHT22;19226;51.600;8.034;2024-01-11T07:11:07;-6.10;99.90
32877;DHT22;19226;51.600;8.034;2024-01-11T07:13:51;-6.20;99.90
32877;DHT22;19226;51.600;8.034;2024-01-11T07:16:36;-6.10;99.90
32877;DHT22;19226;51.600;8.034;2024-01-11T07:19:21;-6.10;99.90
32877;DHT22;19226;51.600;8.034;2024-01-11T07:22:06;-6.00;99.90
32877;DHT22;19226;51.600;8.034;2024-01-11T07:24:53;-5.90;99.90
32877;DHT22;19226;51.600;8.034;2024-01-11T07:27:37;-5.90;99.90
32877;DHT22;19226;51.600;8.034;2024-01-11T07:30:22;-5.90;99.90
32877;DHT22;19226;51.600;8.034;2024-01-11T07:33:07;-5.90;99.90
32877;DHT22;19226;51.600;8.034;2024-01-11T07:35:51;-5.90;99.90
32877;DHT22;19226;51.600;8.034;2024-01-11T07:38:36;-5.90;99.90
32877;DHT22;19226;51.600;8.034;2024-01-11T07:41:24;-5.90;99.90
32877;DHT22;19226;51.600;8.034;2024-01-11T07:44:08;-5.80;99.90
32877;DHT22;19226;51.600;8.034;2024-01-11T07:46:53;-5.80;99.90
32877;DHT22;19226;51.600;8.034;2024-01-11T07:49:38;-5.80;99.90
32877;DHT22;19226;51.600;8.034;2024-01-11T07:52:23;-5.80;99.90
32877;DHT22;19226;51.600;8.034;2024-01-11T07:55:08;-5.80;99.90
32877;DHT22;19226;51.600;8.034;2024-01-11T07:57:54;-5.80;99.90
32877;DHT22;19226;51.600;8.034;2024-01-11T08:00:39;-5.80;99.90
32877;DHT22;19226;51.600;8.034;2024-01-11T08:03:23;-5.80;99.90
32877;DHT22;19226;51.600;8.034;2024-01-11T08:06:08;-5.80;99.90
32877;DHT22;19226;51.600;8.034;2024-01-11T08:08:53;-5.80;99.90
32877;DHT22;19226;51.600;8.034;2024-01-11T08:11:38;-5.80;99.90
32877;DHT22;19226;51.600;8.034;2024-01-11T08:14:23;-5.70;99.90
32877;DHT22;19226;51.600;8.034;2024-01-11T08:17:08;-5.70;99.90
32877;DHT22;19226;51.600;8.034;2024-01-11T08:19:55;-5.70;99.90
32877;DHT22;19226;51.600;8.034;2024-01-11T08:22:41;-5.70;99.90
32877;DHT22;19226;51.600;8.034;2024-01-11T08:25:27;-5.60;99.90
32877;DHT22;19226;51.600;8.034;2024-01-11T08:28:12;-5.60;99.90
32877;DHT22;19226;51.600;8.034;2024-01-11T08:30:56;-5.60;99.90
32877;DHT22;19226;51.600;8.034;2024-01-11T08:33:41;-5.60;99.90
32877;DHT22;19226;51.600;8.034;2024-01-11T08:36:31;-5.60;99.90
32877;DHT22;19226;51.600;8.034;2024-01-11T08:39:17;-5.60;99.90
32877;DHT22;19226;51.600;8.034;2024-01-11T08:42:01;-5.50;99.90
32877;DHT22;19226;51.600;8.034;2024-01-11T08:44:46;-5.50;99.90
32877;DHT22;19226;51.600;8.034;2024-01-11T08:47:32;-5.50;99.90
32877;DHT22;19226;51.600;8.034;2024-01-11T08:50:16;-5.40;99.90
32877;DHT22;19226;51.600;8.034;2024-01-11T08:53:02;-5.40;99.90
32877;DHT22;19226;51.600;8.034;2024-01-11T08:55:46;-5.30;99.90
32877;DHT22;19226;51.600;8.034;2024-01-11T08:58:32;-5.20;99.90
32877;DHT22;19226;51.600;8.034;2024-01-11T09:01:16;-5.20;99.90
32877;DHT22;19226;51.600;8.034;2024-01-11T09:04:02;-5.10;99.90
32877;DHT22;19226;51.600;8.034;2024-01-11T09:06:47;-5.00;99.90
32877;DHT22;19226;51.600;8.034;2024-01-11T09:09:31;-5.00;99.90
32877;DHT22;19226;51.600;8.034;2024-01-11T09:12:16;-4.90;99.90
32877;DHT22;19226;51.600;8.034;2024-01-11T09:15:01;-4.80;99.90
32877;DHT22;19226;51.600;8.034;2024-01-11T09:17:45;-4.70;99.90
32877;DHT22;19226;51.600;8.034;2024-01-11T09:20:29;-4.60;99.90
32877;DHT22;19226;51.600;8.034;2024-01-11T09:23:14;-4.60;99.90
32877;DHT22;19226;51.600;8.034;2024-01-11T09:26:00;-4.50;99.90
32877;DHT22;19226;51.600;8.034;2024-01-11T09:28:44;-4.40;99.90
32877;DHT22;19226;51.600;8.034;2024-01-11T09:31:29;-4.30;99.90
32877;DHT22;19226;51.600;8.034;2024-01-11T09:34:14;-4.20;99.90
32877;DHT22;19226;51.600;8.034;2024-01-11T09:36:59;-4.10;99.90
32877;DHT22;19226;51.600;8.034;2024-01-11T09:39:43;-4.00;99.90
32877;DHT22;19226;51.600;8.034;2024-01-11T09:42:28;-3.90;99.90
32877;DHT22;19226;51.600;8.034;2024-01-11T09:45:15;-3.80;99.90
32877;DHT22;19226;51.600;8.034;2024-01-11T09:48:04;-3.70;99.90
32877;DHT22;19226;51.600;8.034;2024-01-11T09:50:50;-3.60;99.90
32877;DHT22;19226;51.600;8.034;2024-01-11T09:53:36;-3.50;99.90
32877;DHT22;19226;51.600;8.034;2024-01-11T09:56:22;-3.40;99.90
32877;DHT22;19226;51.600;8.034;2024-01-11T09:59:08;-3.30;99.90
32877;DHT22;19226;51.600;8.034;2024-01-11T10:01:54;-3.20;99.90
32877;DHT22;19226;51.600;8.034;2024-01-11T10:04:40;-3.10;99.90
32877;DHT22;19226;51.600;8.034;2024-01-11T10:07:25;-3.00;99.90
32877;DHT22;19226;51.600;8.034;2024-01-11T10:10:09;-2.90;99.90
32877;DHT22;19226;51.600;8.034;2024-01-11T10:12:54;-2.80;99.90
32877;DHT22;19226;51.600;8.034;2024-01-11T10:15:40;-2.60;99.90
32877;DHT22;19226;51.600;8.034;2024-01-11T10:18:25;-2.50;99.90
32877;DHT22;19226;51.600;8.034;2024-01-11T10:21:09;-2.40;99.90
32877;DHT22;19226;51.600;8.034;2024-01-11T10:23:54;-2.30;99.90
32877;DHT22;19226;51.600;8.034;2024-01-11T10:26:43;-2.20;99.90
32877;DHT22;19226;51.600;8.034;2024-01-11T10:29:30;-2.10;99.90
32877;DHT22;19226;51.600;8.034;2024-01-11T10:32:15;-2.00;99.90
32877;DHT22;19226;51.600;8.034;2024-01-11T10:35:01;-1.90;99.90
32877;DHT22;19226;51.600;8.034;2024-01-11T10:37:51;-1.80;99.90
32877;DHT22;19226;51.600;8.034;2024-01-11T10:40:37;-1.70;99.90
32877;DHT22;19226;51.600;8.034;2024-01-11T10:43:22;-1.60;99.90
32877;DHT22;19226;51.600;8.034;2024-01-11T10:46:10;-1.60;99.90
32877;DHT22;19226;51.600;8.034;2024-01-11T10:48:56;-1.60;99.90
32877;DHT22;19226;51.600;8.034;2024-01-11T10:51:48;-1.40;99.90
32877;DHT22;19226;51.600;8.034;2024-01-11T10:54:35;-1.30;99.90
32877;DHT22;19226;51.600;8.034;2024-01-11T10:57:29;-1.30;99.90
32877;DHT22;19226;51.600;8.034;2024-01-11T11:00:15;-1.20;99.90
32877;DHT22;19226;51.600;8.034;2024-01-11T11:03:03;-1.20;99.90
32877;DHT22;19226;51.600;8.034;2024-01-11T11:05:51;-1.00;99.90
32877;DHT22;19226;51.600;8.034;2024-01-11T11:08:37;-0.90;99.90
32877;DHT22;19226;51.600;8.034;2024-01-11T11:11:23;-0.80;99.90
32877;DHT22;19226;51.600;8.034;2024-01-11T11:14:09;-0.70;99.90
32877;DHT22;19226;51.600;8.034;2024-01-11T11:16:55;-0.70;99.90
32877;DHT22;19226;51.600;8.034;2024-01-11T11:19:40;-0.60;99.90
32877;DHT22;19226;51.600;8.034;2024-01-11T11:22:34;-0.60;99.90
32877;DHT22;19226;51.600;8.034;2024-01-11T11:25:24;-0.50;99.90
32877;DHT22;19226;51.600;8.034;2024-01-11T11:28:13;-0.40;99.90
32877;DHT22;19226;51.600;8.034;2024-01-11T11:31:00;-0.30;99.90
32877;DHT22;19226;51.600;8.034;2024-01-11T11:33:49;-0.30;99.90
32877;DHT22;19226;51.600;8.034;2024-01-11T11:36:34;-0.20;99.90
32877;DHT22;19226;51.600;8.034;2024-01-11T11:39:19;-0.10;99.90
32877;DHT22;19226;51.600;8.034;2024-01-11T11:42:04;0.00;99.90
32877;DHT22;19226;51.600;8.034;2024-01-11T11:44:50;0.10;99.90
32877;DHT22;19226;51.600;8.034;2024-01-11T11:47:36;0.20;99.90
32877;DHT22;19226;51.600;8.034;2024-01-11T11:50:22;0.20;99.90
32877;DHT22;19226;51.600;8.034;2024-01-11T11:53:11;0.20;99.90
32877;DHT22;19226;51.600;8.034;2024-01-11T11:55:56;0.30;99.90
32877;DHT22;19226;51.600;8.034;2024-01-11T11:58:41;0.30;99.90
32877;DHT22;19226;51.600;8.034;2024-01-11T12:01:27;0.40;99.90
32877;DHT22;19226;51.600;8.034;2024-01-11T12:04:13;0.40;99.90
32877;DHT22;19226;51.600;8.034;2024-01-11T12:06:59;0.50;99.90
32877;DHT22;19226;51.600;8.034;2024-01-11T12:09:44;0.60;99.90
32877;DHT22;19226;51.600;8.034;2024-01-11T12:12:28;0.70;99.90
32877;DHT22;19226;51.600;8.034;2024-01-11T12:15:13;0.80;99.90
32877;DHT22;19226;51.600;8.034;2024-01-11T12:17:58;0.80;99.90
32877;DHT22;19226;51.600;8.034;2024-01-11T12:20:43;0.90;99.90
32877;DHT22;19226;51.600;8.034;2024-01-11T12:23:28;0.90;99.90
32877;DHT22;19226;51.600;8.034;2024-01-11T12:26:17;0.90;99.90
32877;DHT22;19226;51.600;8.034;2024-01-11T12:29:07;1.00;99.90
32877;DHT22;19226;51.600;8.034;2024-01-11T12:31:51;1.20;99.90
32877;DHT22;19226;51.600;8.034;2024-01-11T12:34:36;1.30;99.90
32877;DHT22;19226;51.600;8.034;2024-01-11T12:37:21;1.30;99.90
32877;DHT22;19226;51.600;8.034;2024-01-11T12:40:06;1.30;99.90
32877;DHT22;19226;51.600;8.034;2024-01-11T12:42:54;1.40;99.90
32877;DHT22;19226;51.600;8.034;2024-01-11T12:45:43;1.40;99.90
32877;DHT22;19226;51.600;8.034;2024-01-11T12:48:29;1.50;99.90
32877;DHT22;19226;51.600;8.034;2024-01-11T12:51:17;1.50;99.90
32877;DHT22;19226;51.600;8.034;2024-01-11T12:54:02;1.60;99.90
32877;DHT22;19226;51.600;8.034;2024-01-11T12:56:48;1.60;99.90
32877;DHT22;19226;51.600;8.034;2024-01-11T12:59:34;1.60;99.90
32877;DHT22;19226;51.600;8.034;2024-01-11T13:02:19;1.70;99.90
32877;DHT22;19226;51.600;8.034;2024-01-11T13:05:04;1.70;99.90
32877;DHT22;19226;51.600;8.034;2024-01-11T13:07:49;1.80;99.90
32877;DHT22;19226;51.600;8.034;2024-01-11T13:10:35;1.80;99.90
32877;DHT22;19226;51.600;8.034;2024-01-11T13:13:22;1.90;99.90
32877;DHT22;19226;51.600;8.034;2024-01-11T13:16:06;1.90;99.90
32877;DHT22;19226;51.600;8.034;2024-01-11T13:18:54;2.00;99.90
32877;DHT22;19226;51.600;8.034;2024-01-11T13:21:38;2.00;99.90
32877;DHT22;19226;51.600;8.034;2024-01-11T13:24:29;2.10;99.90
32877;DHT22;19226;51.600;8.034;2024-01-11T13:27:15;2.10;99.90
32877;DHT22;19226;51.600;8.034;2024-01-11T13:30:11;2.20;99.90
32877;DHT22;19226;51.600;8.034;2024-01-11T13:32:58;2.20;99.90
32877;DHT22;19226;51.600;8.034;2024-01-11T13:35:46;2.10;99.90
32877;DHT22;19226;51.600;8.034;2024-01-11T13:38:31;2.20;99.90
32877;DHT22;19226;51.600;8.034;2024-01-11T13:41:16;2.30;99.90
32877;DHT22;19226;51.600;8.034;2024-01-11T13:44:01;2.30;99.90
32877;DHT22;19226;51.600;8.034;2024-01-11T13:46:45;2.40;99.90
32877;DHT22;19226;51.600;8.034;2024-01-11T13:49:30;2.50;99.90
32877;DHT22;19226;51.600;8.034;2024-01-11T13:52:21;2.50;99.90
32877;DHT22;19226;51.600;8.034;2024-01-11T13:55:06;2.50;99.90
32877;DHT22;19226;51.600;8.034;2024-01-11T13:57:51;2.60;99.90
32877;DHT22;19226;51.600;8.034;2024-01-11T14:00:36;2.70;99.90
32877;DHT22;19226;51.600;8.034;2024-01-11T14:03:21;2.80;99.90
32877;DHT22;19226;51.600;8.034;2024-01-11T14:06:06;2.90;99.90
32877;DHT22;19226;51.600;8.034;2024-01-11T14:08:51;2.90;99.90
32877;DHT22;19226;51.600;8.034;2024-01-11T14:11:35;3.00;99.90
32877;DHT22;19226;51.600;8.034;2024-01-11T14:14:20;3.00;99.90
32877;DHT22;19226;51.600;8.034;2024-01-11T14:17:05;3.00;99.90
32877;DHT22;19226;51.600;8.034;2024-01-11T14:19:50;2.90;99.90
32877;DHT22;19226;51.600;8.034;2024-01-11T14:22:34;2.90;99.90
32877;DHT22;19226;51.600;8.034;2024-01-11T14:25:19;2.90;99.90
32877;DHT22;19226;51.600;8.034;2024-01-11T14:28:04;2.80;99.90
32877;DHT22;19226;51.600;8.034;2024-01-11T14:30:49;2.60;99.90
32877;DHT22;19226;51.600;8.034;2024-01-11T14:33:34;2.60;99.90
32877;DHT22;19226;51.600;8.034;2024-01-11T14:36:20;2.60;99.90
32877;DHT22;19226;51.600;8.034;2024-01-11T14:39:05;2.50;99.90
32877;DHT22;19226;51.600;8.034;2024-01-11T14:41:49;2.50;99.90
32877;DHT22;19226;51.600;8.034;2024-01-11T14:44:34;2.50;99.90
32877;DHT22;19226;51.600;8.034;2024-01-11T14:47:19;2.40;99.90
32877;DHT22;19226;51.600;8.034;2024-01-11T14:50:04;2.50;99.90
32877;DHT22;19226;51.600;8.034;2024-01-11T14:52:49;2.50;99.90
32877;DHT22;19226;51.600;8.034;2024-01-11T14:55:35;2.50;99.90
32877;DHT22;19226;51.600;8.034;2024-01-11T14:58:20;2.40;99.90
32877;DHT22;19226;51.600;8.034;2024-01-11T15:01:04;2.40;99.90
32877;DHT22;19226;51.600;8.034;2024-01-11T15:03:49;2.40;99.90
32877;DHT22;19226;51.600;8.034;2024-01-11T15:06:34;2.40;99.90
32877;DHT22;19226;51.600;8.034;2024-01-11T15:09:18;2.30;99.90
32877;DHT22;19226;51.600;8.034;2024-01-11T15:12:03;2.30;99.90
32877;DHT22;19226;51.600;8.034;2024-01-11T15:14:47;2.30;99.90
32877;DHT22;19226;51.600;8.034;2024-01-11T15:17:34;2.20;99.90
32877;DHT22;19226;51.600;8.034;2024-01-11T15:20:19;2.20;99.90
32877;DHT22;19226;51.600;8.034;2024-01-11T15:23:04;2.20;99.90
32877;DHT22;19226;51.600;8.034;2024-01-11T15:25:49;2.10;99.90
32877;DHT22;19226;51.600;8.034;2024-01-11T15:28:34;2.10;99.90
32877;DHT22;19226;51.600;8.034;2024-01-11T15:31:18;2.00;99.90
32877;DHT22;19226;51.600;8.034;2024-01-11T15:34:03;2.00;99.90
32877;DHT22;19226;51.600;8.034;2024-01-11T15:36:47;2.00;99.90
32877;DHT22;19226;51.600;8.034;2024-01-11T15:39:32;1.90;99.90
32877;DHT22;19226;51.600;8.034;2024-01-11T15:42:17;1.90;99.90
32877;DHT22;19226;51.600;8.034;2024-01-11T15:45:01;1.80;99.90
32877;DHT22;19226;51.600;8.034;2024-01-11T15:47:50;1.80;99.90
32877;DHT22;19226;51.600;8.034;2024-01-11T15:50:34;1.80;99.90
32877;DHT22;19226;51.600;8.034;2024-01-11T15:53:19;1.80;99.90
32877;DHT22;19226;51.600;8.034;2024-01-11T15:56:04;1.80;99.90
32877;DHT22;19226;51.600;8.034;2024-01-11T15:58:48;1.80;99.90
32877;DHT22;19226;51.600;8.034;2024-01-11T16:01:33;1.80;99.90
32877;DHT22;19226;51.600;8.034;2024-01-11T16:04:18;1.80;99.90
32877;DHT22;19226;51.600;8.034;2024-01-11T16:07:03;1.70;99.90
32877;DHT22;19226;51.600;8.034;2024-01-11T16:09:47;1.70;99.90
32877;DHT22;19226;51.600;8.034;2024-01-11T16:12:33;1.60;99.90
32877;DHT22;19226;51.600;8.034;2024-01-11T16:15:19;1.60;99.90
32877;DHT22;19226;51.600;8.034;2024-01-11T16:18:04;1.60;99.90
32877;DHT22;19226;51.600;8.034;2024-01-11T16:20:48;1.50;99.90
32877;DHT22;19226;51.600;8.034;2024-01-11T16:23:38;1.50;99.90
32877;DHT22;19226;51.600;8.034;2024-01-11T16:26:22;1.50;99.90
32877;DHT22;19226;51.600;8.034;2024-01-11T16:29:08;1.40;99.90
32877;DHT22;19226;51.600;8.034;2024-01-11T16:31:52;1.40;99.90
32877;DHT22;19226;51.600;8.034;2024-01-11T16:34:38;1.30;99.90
32877;DHT22;19226;51.600;8.034;2024-01-11T16:37:23;1.30;99.90
32877;DHT22;19226;51.600;8.034;2024-01-11T16:40:08;1.30;99.90
32877;DHT22;19226;51.600;8.034;2024-01-11T16:42:55;1.30;99.90
32877;DHT22;19226;51.600;8.034;2024-01-11T16:45:40;1.30;99.90
32877;DHT22;19226;51.600;8.034;2024-01-11T16:48:25;1.30;99.90
32877;DHT22;19226;51.600;8.034;2024-01-11T16:51:11;1.30;99.90
32877;DHT22;19226;51.600;8.034;2024-01-11T16:53:55;1.30;99.90
32877;DHT22;19226;51.600;8.034;2024-01-11T16:56:43;1.30;99.90
32877;DHT22;19226;51.600;8.034;2024-01-11T16:59:27;1.30;99.90
32877;DHT22;19226;51.600;8.034;2024-01-11T17:02:12;1.30;99.90
32877;DHT22;19226;51.600;8.034;2024-01-11T17:04:56;1.20;99.90
32877;DHT22;19226;51.600;8.034;2024-01-11T17:07:41;1.20;99.90
32877;DHT22;19226;51.600;8.034;2024-01-11T17:10:26;1.20;99.90
32877;DHT22;19226;51.600;8.034;2024-01-11T17:13:11;1.20;99.90
32877;DHT22;19226;51.600;8.034;2024-01-11T17:15:56;1.10;99.90
32877;DHT22;19226;51.600;8.034;2024-01-11T17:18:40;1.10;99.90
32877;DHT22;19226;51.600;8.034;2024-01-11T17:21:28;1.10;99.90
32877;DHT22;19226;51.600;8.034;2024-01-11T17:24:14;1.00;99.90
32877;DHT22;19226;51.600;8.034;2024-01-11T17:26:58;1.00;99.90
32877;DHT22;19226;51.600;8.034;2024-01-11T17:29:48;1.00;99.90